createdAt,value
2022-09-23T00:01:26.103Z,100705.80
2022-09-23T00:03:53.917Z,100699.60
2022-09-23T00:06:23.917Z,100694.80
2022-09-23T00:08:52.298Z,100694.60
2022-09-23T00:11:24.387Z,100691.40
2022-09-23T00:14:00.921Z,100695.00
2022-09-23T00:16:34.264Z,100693.40
2022-09-23T00:19:03.934Z,100690.00
2022-09-23T00:21:31.926Z,100688.80
2022-09-23T00:23:59.629Z,100687.20
2022-09-23T00:26:27.859Z,100682.80
2022-09-23T00:28:55.461Z,100683.60
2022-09-23T00:31:26.079Z,100678.20
2022-09-23T00:34:00.421Z,100677.80
2022-09-23T00:36:29.914Z,100675.80
2022-09-23T00:38:58.549Z,100674.80
2022-09-23T00:41:27.235Z,100674.80
2022-09-23T00:43:58.949Z,100670.40
2022-09-23T00:46:37.150Z,100671.40
2022-09-23T00:49:23.502Z,100667.20
2022-09-23T00:51:59.749Z,100667.60
2022-09-23T00:54:29.346Z,100659.60
2022-09-23T00:56:59.854Z,100657.00
2022-09-23T00:59:29.121Z,100657.20
2022-09-23T01:02:00.338Z,100657.20
2022-09-23T01:04:29.710Z,100657.40
2022-09-23T01:06:57.315Z,100657.80
2022-09-23T01:09:25.694Z,100656.60
2022-09-23T01:12:36.433Z,100654.60
2022-09-23T01:15:31.117Z,100658.60
2022-09-23T01:18:29.314Z,100660.80
2022-09-23T01:21:27.903Z,100655.60
2022-09-23T01:25:04.850Z,100654.40
2022-09-23T01:27:56.037Z,100650.00
2022-09-23T01:31:01.269Z,100654.40
2022-09-23T01:33:51.215Z,100656.60
2022-09-23T01:36:27.123Z,100656.00
2022-09-23T01:39:09.500Z,100652.40
2022-09-23T01:41:57.770Z,100650.40
2022-09-23T01:44:49.760Z,100651.00
2022-09-23T01:47:44.943Z,100653.20
2022-09-23T01:50:39.075Z,100651.00
2022-09-23T01:53:17.960Z,100645.00
2022-09-23T01:55:53.046Z,100642.00
2022-09-23T01:58:48.218Z,100643.20
2022-09-23T02:01:28.241Z,100641.60
2022-09-23T02:04:30.901Z,100638.40
2022-09-23T02:07:15.139Z,100635.20
2022-09-23T02:09:50.982Z,100635.00
2022-09-23T02:12:24.590Z,100634.20
2022-09-23T02:14:56.158Z,100635.00
2022-09-23T02:17:36.793Z,100633.60
2022-09-23T02:20:07.446Z,100631.20
2022-09-23T02:22:45.358Z,100624.80
2022-09-23T02:25:13.523Z,100627.00
2022-09-23T02:28:04.212Z,100623.80
2022-09-23T02:30:46.592Z,100629.00
2022-09-23T02:33:43.174Z,100632.60
2022-09-23T02:36:38.255Z,100634.60
2022-09-23T02:39:12.907Z,100631.00
2022-09-23T02:42:10.183Z,100630.00
2022-09-23T02:44:38.111Z,100630.80
2022-09-23T02:47:06.216Z,100620.40
2022-09-23T02:49:36.501Z,100620.00
2022-09-23T02:52:07.580Z,100622.80
2022-09-23T02:54:37.237Z,100614.60
2022-09-23T02:57:08.329Z,100615.60
2022-09-23T02:59:37.221Z,100606.40
2022-09-23T03:02:40.014Z,100602.00
2022-09-23T03:05:32.691Z,100603.40
2022-09-23T03:08:20.805Z,100602.20
2022-09-23T03:11:11.549Z,100603.60
2022-09-23T03:14:16.927Z,100600.40
2022-09-23T03:17:03.688Z,100601.20
2022-09-23T03:19:48.356Z,100605.20
2022-09-23T03:22:31.567Z,100607.60
2022-09-23T03:25:13.195Z,100611.20
2022-09-23T03:27:42.449Z,100611.20
2022-09-23T03:30:11.141Z,100613.60
2022-09-23T03:32:44.107Z,100603.40
2022-09-23T03:35:13.275Z,100609.00
2022-09-23T03:38:15.720Z,100603.20
2022-09-23T03:40:50.833Z,100600.80
2022-09-23T03:43:18.826Z,100600.20
2022-09-23T03:45:47.385Z,100592.80
2022-09-23T03:48:15.792Z,100590.60
2022-09-23T03:50:44.447Z,100591.20
2022-09-23T03:53:13.745Z,100586.60
2022-09-23T03:55:41.374Z,100594.00
2022-09-23T03:58:09.097Z,100590.60
2022-09-23T04:00:37.238Z,100591.00
2022-09-23T04:03:09.591Z,100583.60
2022-09-23T04:05:39.420Z,100584.00
2022-09-23T04:08:07.112Z,100584.60
2022-09-23T04:10:34.828Z,100589.00
2022-09-23T04:13:02.602Z,100583.40
2022-09-23T04:15:30.228Z,100580.20
2022-09-23T04:17:57.854Z,100581.00
2022-09-23T04:20:29.765Z,100580.60
2022-09-23T04:22:57.408Z,100576.20
2022-09-23T04:25:25.037Z,100575.60
2022-09-23T04:27:52.769Z,100580.00
2022-09-23T04:30:20.426Z,100579.20
2022-09-23T04:32:48.119Z,100573.60
2022-09-23T04:35:15.779Z,100576.60
2022-09-23T04:37:43.425Z,100578.20
2022-09-23T04:40:11.366Z,100578.60
2022-09-23T04:42:39.069Z,100576.40
2022-09-23T04:45:08.173Z,100579.60
2022-09-23T04:47:35.881Z,100585.60
2022-09-23T04:50:03.900Z,100589.40
2022-09-23T04:52:31.984Z,100584.40
2022-09-23T04:54:59.644Z,100582.20
2022-09-23T04:57:28.137Z,100577.20
2022-09-23T04:59:57.430Z,100581.40
2022-09-23T05:02:25.409Z,100576.20
2022-09-23T05:04:53.166Z,100581.80
2022-09-23T05:07:21.242Z,100569.20
2022-09-23T05:09:49.181Z,100573.80
2022-09-23T05:12:16.831Z,100568.20
2022-09-23T05:14:44.472Z,100572.20
2022-09-23T05:17:12.168Z,100570.60
2022-09-23T05:19:39.920Z,100572.60
2022-09-23T05:22:07.682Z,100570.60
2022-09-23T05:24:35.338Z,100572.00
2022-09-23T05:27:05.326Z,100577.20
2022-09-23T05:29:34.849Z,100571.60
2022-09-23T05:32:02.576Z,100573.40
2022-09-23T05:34:30.546Z,100574.60
2022-09-23T05:36:58.435Z,100574.00
2022-09-23T05:39:26.138Z,100572.20
2022-09-23T05:41:55.519Z,100580.80
2022-09-23T05:44:23.167Z,100580.00
2022-09-23T05:46:51.112Z,100580.20
2022-09-23T05:49:18.964Z,100585.20
2022-09-23T05:51:46.749Z,100583.40
2022-09-23T05:54:14.454Z,100594.60
2022-09-23T05:56:42.142Z,100596.20
2022-09-23T05:59:10.252Z,100600.80
2022-09-23T06:01:38.760Z,100600.40
2022-09-23T06:04:11.814Z,100599.00
2022-09-23T06:06:42.594Z,100598.20
2022-09-23T06:09:14.992Z,100600.20
2022-09-23T06:11:42.734Z,100595.20
2022-09-23T06:14:14.862Z,100597.60
2022-09-23T06:16:43.172Z,100595.20
2022-09-23T06:19:11.178Z,100596.60
2022-09-23T06:21:41.040Z,100595.20
2022-09-23T06:24:11.231Z,100598.80
2022-09-23T06:26:41.104Z,100599.80
2022-09-23T06:29:11.951Z,100605.60
2022-09-23T06:31:41.956Z,100604.00
2022-09-23T06:34:13.729Z,100614.60
2022-09-23T06:36:45.731Z,100615.60
2022-09-23T06:39:15.273Z,100613.80
2022-09-23T06:41:44.258Z,100610.60
2022-09-23T06:44:15.607Z,100610.00
2022-09-23T06:46:44.110Z,100610.60
2022-09-23T06:49:13.386Z,100610.40
2022-09-23T06:51:41.583Z,100609.20
2022-09-23T06:54:11.013Z,100609.60
2022-09-23T06:56:40.003Z,100610.80
2022-09-23T06:59:13.078Z,100615.40
2022-09-23T07:01:41.547Z,100615.40
2022-09-23T07:04:10.636Z,100620.00
2022-09-23T07:06:39.305Z,100618.00
2022-09-23T07:09:08.226Z,100622.80
2022-09-23T07:11:35.930Z,100620.20
2022-09-23T07:14:03.839Z,100624.40
2022-09-23T07:16:32.845Z,100622.60
2022-09-23T07:19:00.549Z,100623.40
2022-09-23T07:21:28.294Z,100623.40
2022-09-23T07:23:58.166Z,100626.80
2022-09-23T07:26:26.459Z,100628.80
2022-09-23T07:29:04.758Z,100635.60
2022-09-23T07:31:39.777Z,100636.40
2022-09-23T07:34:12.619Z,100635.60
2022-09-23T07:36:41.311Z,100641.00
2022-09-23T07:39:12.570Z,100647.20
2022-09-23T07:41:44.182Z,100646.80
2022-09-23T07:44:12.350Z,100651.60
2022-09-23T07:46:40.346Z,100650.80
2022-09-23T07:49:08.747Z,100649.40
2022-09-23T07:51:40.232Z,100647.00
2022-09-23T07:54:14.693Z,100648.00
2022-09-23T07:56:43.855Z,100650.40
2022-09-23T07:59:18.193Z,100652.00
2022-09-23T08:01:50.740Z,100649.80
2022-09-23T08:04:31.153Z,100653.20
2022-09-23T08:07:05.172Z,100650.80
2022-09-23T08:09:41.265Z,100649.80
2022-09-23T08:12:16.249Z,100648.00
2022-09-23T08:14:44.802Z,100652.20
2022-09-23T08:17:13.943Z,100653.40
2022-09-23T08:19:42.022Z,100649.80
2022-09-23T08:22:09.791Z,100648.20
2022-09-23T08:24:37.663Z,100647.20
2022-09-23T08:27:05.461Z,100647.60
2022-09-23T08:29:33.135Z,100646.60
2022-09-23T08:32:02.176Z,100650.40
2022-09-23T08:34:30.319Z,100652.40
2022-09-23T08:36:58.006Z,100651.60
2022-09-23T08:39:26.130Z,100655.20
2022-09-23T08:42:17.359Z,100658.40
2022-09-23T08:44:51.744Z,100657.80
2022-09-23T08:47:51.791Z,100659.20
2022-09-23T08:50:37.093Z,100671.00
2022-09-23T08:53:32.365Z,100671.00
2022-09-23T08:56:07.349Z,100671.80
2022-09-23T08:59:01.428Z,100679.60
2022-09-23T09:01:55.816Z,100683.00
2022-09-23T09:04:35.557Z,100683.60
2022-09-23T09:07:36.185Z,100679.80
2022-09-23T09:10:26.137Z,100678.80
2022-09-23T09:13:07.601Z,100680.80
2022-09-23T09:15:47.078Z,100685.00
2022-09-23T09:18:21.425Z,100678.40
2022-09-23T09:21:17.824Z,100684.20
2022-09-23T09:23:57.414Z,100690.40
2022-09-23T09:26:33.307Z,100690.00
2022-09-23T09:29:41.300Z,100691.40
2022-09-23T09:32:46.468Z,100694.20
2022-09-23T09:36:08.910Z,100691.80
2022-09-23T09:38:37.395Z,100692.60
2022-09-23T09:41:17.758Z,100692.00
2022-09-23T09:43:50.078Z,100691.80
2022-09-23T09:46:39.343Z,100687.40
2022-09-23T09:49:40.892Z,100685.60
2022-09-23T09:52:23.208Z,100683.60
2022-09-23T09:54:52.384Z,100686.00
2022-09-23T09:57:36.056Z,100679.60
2022-09-23T10:00:38.203Z,100679.20
2022-09-23T10:03:15.350Z,100684.20
2022-09-23T10:05:46.038Z,100685.20
2022-09-23T10:08:32.243Z,100685.60
2022-09-23T10:11:04.279Z,100684.20
2022-09-23T10:13:32.789Z,100684.20
2022-09-23T10:16:03.891Z,100682.80
2022-09-23T10:18:48.185Z,100682.00
2022-09-23T10:21:26.927Z,100688.40
2022-09-23T10:23:58.655Z,100682.60
2022-09-23T10:26:44.726Z,100680.40
2022-09-23T10:29:28.939Z,100680.80
2022-09-23T10:32:28.205Z,100678.80
2022-09-23T10:35:14.558Z,100681.20
2022-09-23T10:37:53.488Z,100682.60
2022-09-23T10:40:51.101Z,100682.00
2022-09-23T10:44:20.883Z,100678.80
2022-09-23T10:47:04.142Z,100672.40
2022-09-23T10:49:43.665Z,100678.00
2022-09-23T10:52:48.968Z,100683.60
2022-09-23T10:55:37.949Z,100676.40
2022-09-23T10:58:32.871Z,100673.80
2022-09-23T11:01:13.488Z,100670.00
2022-09-23T11:04:32.333Z,100664.00
2022-09-23T11:07:18.895Z,100663.80
2022-09-23T11:10:29.063Z,100659.60
2022-09-23T11:13:54.771Z,100652.60
2022-09-23T11:16:47.600Z,100654.60
2022-09-23T11:19:44.735Z,100651.40
2022-09-23T11:23:07.212Z,100654.00
2022-09-23T11:26:08.660Z,100655.00
2022-09-23T11:29:12.204Z,100652.00
2022-09-23T11:32:14.204Z,100646.20
2022-09-23T11:35:16.142Z,100645.00
2022-09-23T11:37:51.485Z,100643.80
2022-09-23T11:40:33.565Z,100636.80
2022-09-23T11:43:23.524Z,100630.80
2022-09-23T11:46:13.776Z,100625.80
2022-09-23T11:48:54.539Z,100625.20
2022-09-23T11:51:29.224Z,100627.00
2022-09-23T11:54:11.125Z,100624.80
2022-09-23T11:56:49.202Z,100628.60
2022-09-23T12:03:41.220Z,100629.80
2022-09-23T12:06:39.938Z,100625.00
2022-09-23T12:09:59.058Z,100624.00
2022-09-23T12:12:55.992Z,100626.80
2022-09-23T12:15:56.108Z,100618.20
2022-09-23T12:18:35.848Z,100622.40
2022-09-23T12:21:51.032Z,100617.40
2022-09-23T12:24:59.506Z,100621.00
2022-09-23T12:27:45.587Z,100614.40
2022-09-23T12:30:29.124Z,100615.00
2022-09-23T12:33:18.090Z,100613.60
2022-09-23T12:35:46.538Z,100611.40
2022-09-23T12:38:34.496Z,100612.40
2022-09-23T12:41:20.573Z,100610.80
2022-09-23T12:44:37.600Z,100605.00
2022-09-23T12:47:28.039Z,100600.60
2022-09-23T12:50:00.985Z,100606.40
2022-09-23T12:52:33.058Z,100601.60
2022-09-23T12:55:22.074Z,100597.60
2022-09-23T12:57:50.109Z,100595.60
2022-09-23T13:00:22.682Z,100592.40
2022-09-23T13:03:10.203Z,100588.40
2022-09-23T13:06:09.982Z,100595.00
2022-09-23T13:08:41.681Z,100590.20
2022-09-23T13:11:32.327Z,100588.20
2022-09-23T13:14:04.880Z,100599.20
2022-09-23T13:16:45.014Z,100599.20
2022-09-23T13:19:28.046Z,100603.60
2022-09-23T13:22:09.102Z,100597.00
2022-09-23T13:25:02.770Z,100598.40
2022-09-23T13:27:34.017Z,100596.20
2022-09-23T13:30:19.364Z,100596.00
2022-09-23T13:33:04.497Z,100591.80
2022-09-23T13:35:39.535Z,100589.00
2022-09-23T13:38:26.241Z,100593.20
2022-09-23T13:41:17.904Z,100598.20
2022-09-23T13:43:59.626Z,100593.00
2022-09-23T13:46:35.189Z,100590.20
2022-09-23T13:49:03.131Z,100588.20
2022-09-23T13:51:35.059Z,100582.60
2022-09-23T13:54:05.135Z,100584.00
2022-09-23T13:56:35.342Z,100576.40
2022-09-23T13:59:25.013Z,100580.00
2022-09-23T14:02:05.148Z,100578.60
2022-09-23T14:04:32.900Z,100576.80
2022-09-23T14:07:02.512Z,100572.00
2022-09-23T14:09:31.823Z,100570.40
2022-09-23T14:12:02.059Z,100569.40
2022-09-23T14:14:30.953Z,100571.00
2022-09-23T14:16:59.405Z,100566.60
2022-09-23T14:19:27.274Z,100564.60
2022-09-23T14:21:56.595Z,100557.60
2022-09-23T14:24:34.095Z,100559.00
2022-09-23T14:27:15.894Z,100557.60
2022-09-23T14:29:48.031Z,100555.20
2022-09-23T14:32:28.656Z,100551.20
2022-09-23T14:35:05.327Z,100545.40
2022-09-23T14:37:56.937Z,100538.80
2022-09-23T14:40:33.412Z,100537.20
2022-09-23T14:43:17.519Z,100538.20
2022-09-23T14:45:50.481Z,100538.80
2022-09-23T14:48:23.814Z,100536.00
2022-09-23T14:50:57.286Z,100534.40
2022-09-23T14:53:43.600Z,100529.80
2022-09-23T14:56:19.884Z,100527.80
2022-09-23T14:59:00.131Z,100520.00
2022-09-23T15:01:30.857Z,100516.00
2022-09-23T15:04:21.648Z,100515.80
2022-09-23T15:06:59.293Z,100514.80
2022-09-23T15:09:40.596Z,100510.80
2022-09-23T15:12:12.891Z,100509.40
2022-09-23T15:14:46.543Z,100507.20
2022-09-23T15:17:37.569Z,100508.60
2022-09-23T15:20:18.630Z,100505.80
2022-09-23T15:22:50.872Z,100508.60
2022-09-23T15:25:21.330Z,100510.60
2022-09-23T15:28:03.420Z,100499.00
2022-09-23T15:30:32.163Z,100504.20
2022-09-23T15:32:59.989Z,100501.20
2022-09-23T15:35:31.798Z,100502.80
2022-09-23T15:38:02.706Z,100500.40
2022-09-23T15:40:33.690Z,100505.00
2022-09-23T15:43:21.034Z,100498.80
2022-09-23T15:45:54.062Z,100506.20
2022-09-23T15:48:35.760Z,100500.80
2022-09-23T15:51:08.137Z,100505.20
2022-09-23T15:53:38.134Z,100504.20
2022-09-23T15:56:06.376Z,100504.80
2022-09-23T15:58:34.100Z,100501.40
2022-09-23T16:01:02.091Z,100503.80
2022-09-23T16:03:29.918Z,100503.60
2022-09-23T16:06:05.870Z,100505.60
2022-09-23T16:08:33.576Z,100506.80
2022-09-23T16:11:01.507Z,100505.20
2022-09-23T16:13:29.381Z,100509.20
2022-09-23T16:15:57.174Z,100512.00
2022-09-23T16:18:25.070Z,100513.40
2022-09-23T16:20:52.857Z,100513.40
2022-09-23T16:23:35.444Z,100513.80
2022-09-23T16:26:08.343Z,100509.40
2022-09-23T16:28:36.786Z,100512.20
2022-09-23T16:31:04.788Z,100513.60
2022-09-23T16:33:32.587Z,100513.60
2022-09-23T16:36:03.554Z,100508.60
2022-09-23T16:38:32.545Z,100512.00
2022-09-23T16:41:00.705Z,100508.80
2022-09-23T16:43:39.365Z,100505.20
2022-09-23T16:46:13.245Z,100510.60
2022-09-23T16:48:44.994Z,100507.40
2022-09-23T16:51:20.465Z,100514.20
2022-09-23T16:53:50.063Z,100512.60
2022-09-23T16:56:23.052Z,100513.20
2022-09-23T16:58:55.403Z,100515.20
2022-09-23T17:01:47.531Z,100514.80
2022-09-23T17:04:19.343Z,100517.60
2022-09-23T17:06:52.675Z,100519.60
2022-09-23T17:09:24.767Z,100520.20
2022-09-23T17:12:22.088Z,100523.20
2022-09-23T17:14:49.921Z,100523.20
2022-09-23T17:17:17.629Z,100522.00
2022-09-23T17:19:45.303Z,100521.40
2022-09-23T17:22:13.583Z,100527.00
2022-09-23T17:24:41.382Z,100521.00
2022-09-23T17:27:09.144Z,100527.00
2022-09-23T17:29:36.936Z,100525.60
2022-09-23T17:32:04.908Z,100535.00
2022-09-23T17:34:33.442Z,100538.60
2022-09-23T17:37:02.461Z,100536.40
2022-09-23T17:39:31.721Z,100541.60
2022-09-23T17:41:59.435Z,100542.60
2022-09-23T17:44:27.194Z,100543.80
2022-09-23T17:46:55.061Z,100543.60
2022-09-23T17:49:24.156Z,100550.40
2022-09-23T17:51:51.966Z,100550.40
2022-09-23T17:54:19.645Z,100553.60
2022-09-23T17:56:47.326Z,100554.60
2022-09-23T17:59:14.943Z,100555.40
2022-09-23T18:01:42.733Z,100558.40
2022-09-23T18:04:10.835Z,100563.00
2022-09-23T18:06:38.595Z,100551.40
2022-09-23T18:09:08.650Z,100555.00
2022-09-23T18:11:44.151Z,100555.80
2022-09-23T18:14:20.418Z,100560.20
2022-09-23T18:16:51.829Z,100560.00
2022-09-23T18:19:23.294Z,100558.20
2022-09-23T18:21:55.810Z,100562.80
2022-09-23T18:24:33.043Z,100566.20
2022-09-23T18:27:02.429Z,100568.60
2022-09-23T18:29:30.333Z,100570.60
2022-09-23T18:31:59.250Z,100575.00
2022-09-23T18:34:28.665Z,100571.60
2022-09-23T18:36:56.378Z,100579.40
2022-09-23T18:39:24.188Z,100581.80
2022-09-23T18:41:51.988Z,100579.40
2022-09-23T18:44:20.106Z,100587.20
2022-09-23T18:46:47.750Z,100582.40
2022-09-23T18:49:44.551Z,100583.00
2022-09-23T18:52:12.243Z,100580.20
2022-09-23T18:54:39.974Z,100575.40
2022-09-23T18:57:07.969Z,100584.40
2022-09-23T18:59:35.618Z,100578.80
2022-09-23T19:02:03.614Z,100584.60
2022-09-23T19:04:31.705Z,100587.40
2022-09-23T19:06:59.459Z,100584.40
2022-09-23T19:09:27.146Z,100595.20
2022-09-23T19:11:55.824Z,100592.00
2022-09-23T19:14:23.587Z,100596.80
2022-09-23T19:16:51.316Z,100601.20
2022-09-23T19:19:19.522Z,100602.20
2022-09-23T19:21:47.303Z,100604.00
2022-09-23T19:24:20.013Z,100605.20
2022-09-23T19:26:48.669Z,100602.20
2022-09-23T19:29:22.012Z,100600.40
2022-09-23T19:31:50.926Z,100601.20
2022-09-23T19:34:24.798Z,100608.20
2022-09-23T19:36:57.351Z,100609.80
2022-09-23T19:39:31.049Z,100611.80
2022-09-23T19:41:59.320Z,100615.80
2022-09-23T19:44:27.734Z,100614.80
2022-09-23T19:46:57.101Z,100621.40
2022-09-23T19:49:25.712Z,100620.40
2022-09-23T19:51:55.987Z,100616.00
2022-09-23T19:54:26.826Z,100627.60
2022-09-23T19:56:55.192Z,100620.20
2022-09-23T19:59:22.967Z,100618.60
2022-09-23T20:01:50.761Z,100615.60
2022-09-23T20:04:18.529Z,100611.20
2022-09-23T20:06:47.110Z,100609.60
2022-09-23T20:09:15.050Z,100609.60
2022-09-23T20:11:42.951Z,100611.60
2022-09-23T20:14:13.108Z,100612.00
2022-09-23T20:16:40.930Z,100616.20
2022-09-23T20:19:10.154Z,100613.40
2022-09-23T20:21:38.025Z,100621.20
2022-09-23T20:24:06.844Z,100625.00
2022-09-23T20:26:53.775Z,100628.80
2022-09-23T20:29:22.182Z,100633.00
2022-09-23T20:31:50.025Z,100635.60
2022-09-23T20:34:19.538Z,100637.20
2022-09-23T20:36:47.251Z,100633.60
2022-09-23T20:39:14.995Z,100633.00
2022-09-23T20:41:43.408Z,100624.80
2022-09-23T20:44:12.471Z,100629.00
2022-09-23T20:46:48.177Z,100631.00
2022-09-23T20:49:18.066Z,100622.20
2022-09-23T20:51:48.917Z,100622.00
2022-09-23T20:54:20.285Z,100617.00
2022-09-23T20:56:48.147Z,100619.60
2022-09-23T20:59:17.893Z,100621.80
2022-09-23T21:01:47.860Z,100611.80
2022-09-23T21:04:15.793Z,100618.60
2022-09-23T21:06:43.819Z,100619.60
2022-09-23T21:09:11.585Z,100626.60
2022-09-23T21:11:39.242Z,100628.80
2022-09-23T21:14:07.157Z,100630.40
2022-09-23T21:16:35.206Z,100634.40
2022-09-23T21:19:03.834Z,100635.40
2022-09-23T21:21:31.603Z,100638.60
2022-09-23T21:24:17.218Z,100640.60
2022-09-23T21:26:47.303Z,100644.00
2022-09-23T21:29:15.412Z,100645.80
2022-09-23T21:31:43.333Z,100638.80
2022-09-23T21:34:12.625Z,100646.00
2022-09-23T21:36:43.301Z,100642.40
2022-09-23T21:39:12.289Z,100642.40
2022-09-23T21:41:40.836Z,100643.80
2022-09-23T21:44:08.769Z,100643.20
2022-09-23T21:46:37.275Z,100641.20
2022-09-23T21:49:05.653Z,100642.80
2022-09-23T21:51:42.637Z,100644.20
2022-09-23T21:54:15.648Z,100644.00
2022-09-23T21:56:44.677Z,100644.40
2022-09-23T21:59:12.916Z,100647.40
2022-09-23T22:01:50.532Z,100648.20
2022-09-23T22:04:21.881Z,100648.60
2022-09-23T22:06:49.640Z,100644.20
2022-09-23T22:09:20.733Z,100646.00
2022-09-23T22:12:07.337Z,100647.20
2022-09-23T22:14:36.046Z,100645.80
2022-09-23T22:17:07.492Z,100648.40
2022-09-23T22:19:42.741Z,100647.20
2022-09-23T22:22:17.654Z,100649.20
2022-09-23T22:24:47.929Z,100642.00
2022-09-23T22:27:19.116Z,100647.00
2022-09-23T22:30:05.657Z,100652.00
2022-09-23T22:32:53.026Z,100658.00
2022-09-23T22:35:22.679Z,100656.20
2022-09-23T22:37:50.566Z,100653.00
2022-09-23T22:40:18.498Z,100657.00
2022-09-23T22:42:46.641Z,100655.00
2022-09-23T22:45:14.695Z,100651.40
2022-09-23T22:47:45.506Z,100655.00
2022-09-23T22:50:15.402Z,100661.80
2022-09-23T22:52:44.089Z,100661.40
2022-09-23T22:55:12.290Z,100665.00
2022-09-23T22:57:40.096Z,100658.80
2022-09-23T23:00:09.432Z,100656.80
2022-09-23T23:02:37.151Z,100654.40
2022-09-23T23:05:05.479Z,100654.80
2022-09-23T23:07:35.015Z,100654.80
2022-09-23T23:10:04.630Z,100660.20
2022-09-23T23:12:33.458Z,100660.20
2022-09-23T23:15:01.220Z,100660.60
2022-09-23T23:17:29.841Z,100666.60
2022-09-23T23:19:57.938Z,100662.40
2022-09-23T23:22:28.581Z,100664.80
2022-09-23T23:24:56.755Z,100662.80
2022-09-23T23:27:24.550Z,100665.40
2022-09-23T23:29:52.221Z,100659.60
2022-09-23T23:32:19.851Z,100662.60
2022-09-23T23:34:47.546Z,100658.40
2022-09-23T23:37:20.090Z,100664.80
2022-09-23T23:39:48.596Z,100664.80
2022-09-23T23:42:16.251Z,100660.00
2022-09-23T23:44:44.398Z,100658.80
2022-09-23T23:47:12.486Z,100659.60
2022-09-23T23:49:40.558Z,100663.00
2022-09-23T23:52:08.355Z,100658.80
2022-09-23T23:54:35.991Z,100658.40
2022-09-23T23:57:03.793Z,100653.00
2022-09-23T23:59:31.563Z,100660.60
